West Essex Park Conservancy

Temperature/Humidity/Waterlevel monitor

11-25 12:30     F   %    Z  mov    seq 
11-25 12:12,   53, 54,  0.0 200  36040
11-25 11:50,   62, 49,  0.0 200  35010
11-25 11:29,   57, 52,  0.0 200  34002
11-25 11:08,   67, 50,  0.0 200  33044
11-25 10:48,   52, 59,  0.0 200  32104
11-25 10:27,   53, 59,  0.0 200  31129
11-25 09:43,   50, 63,  0.0 200  29059
11-25 09:00,   66, 57,  0.0 200  27061
11-25 08:39,   56, 66,  0.0 200  26098
11-25 07:59,   33, 84,  0.0 200  24202
11-25 07:37,   31, 85,  0.0 200  23197
11-25 07:17,   29, 85,  0.0 200  22241
11-25 06:56,   29, 85,  0.0 200  21283
11-25 06:36,   28, 85,  0.0 200  20325
11-25 06:15,   28, 85,  0.0 200  19365
11-25 05:54,   28, 85,  0.0 200  18405
11-25 05:34,   27, 84,  0.0 200  17450
11-25 05:14,   27, 84,  0.0 200  16495
11-25 04:53,   27, 84,  0.0 200  15563
11-25 04:32,   28, 83,  0.0 200  14558
11-25 04:12,   30, 82,  0.0 200  13602
11-25 03:51,   33, 82,  0.0 200  12646
11-25 03:31,   35, 82,  0.0 200  11690
11-25 03:10,   35, 82,  0.0 200  10734
11-25 02:50,   36, 81,  0.0 200   9774
11-25 02:29,   36, 81,  0.0 200   8817
11-25 02:09,   36, 81,  0.0 200   7862
11-25 01:48,   35, 81,  0.0 200   6905
11-25 01:28,   35, 81,  0.0 200   5949
11-25 01:07,   35, 81,  0.0 200   4992
11-25 00:47,   34, 81,  0.0 200   4034
11-25 00:26,   34, 81,  0.0 200   3077
11-25 00:06,   33, 80,  0.0 200   2144
11-24 23:45,   33, 80,  0.0 200   1138
11-24 23:24,   33, 80,  0.0 200    179
11-24 23:04,   32, 80,  0.0 200  64757
11-24 22:43,   32, 80,  0.0 200  63799
11-24 22:23,   31, 80,  0.0 200  62842
11-24 22:02,   31, 79,  0.0 200  61886
11-24 21:42,   30, 79,  0.0 200  60929

Go to the West Essex Park Conservancy birding log .